sensor_id;sensor_type;location;lat;lon;timestamp;P1;durP1;ratioP1;P2;durP2;ratioP2
6693;SDS011;3384;42.628;23.380;2022-08-19T00:01:16;4.73;;;4.53;;
6693;SDS011;3384;42.628;23.380;2022-08-19T00:03:43;5.13;;;4.97;;
6693;SDS011;3384;42.628;23.380;2022-08-19T00:06:10;6.47;;;6.07;;
6693;SDS011;3384;42.628;23.380;2022-08-19T00:08:37;6.03;;;5.63;;
6693;SDS011;3384;42.628;23.380;2022-08-19T00:11:04;4.97;;;4.77;;
6693;SDS011;3384;42.628;23.380;2022-08-19T00:13:32;5.80;;;5.50;;
6693;SDS011;3384;42.628;23.380;2022-08-19T00:16:00;5.53;;;5.33;;
6693;SDS011;3384;42.628;23.380;2022-08-19T00:18:27;5.07;;;4.80;;
6693;SDS011;3384;42.628;23.380;2022-08-19T00:20:54;5.53;;;5.20;;
6693;SDS011;3384;42.628;23.380;2022-08-19T00:23:21;7.20;;;6.50;;
6693;SDS011;3384;42.628;23.380;2022-08-19T00:25:48;5.57;;;5.27;;
6693;SDS011;3384;42.628;23.380;2022-08-19T00:28:15;5.50;;;5.30;;
6693;SDS011;3384;42.628;23.380;2022-08-19T00:30:42;9.60;;;5.33;;
6693;SDS011;3384;42.628;23.380;2022-08-19T00:33:11;6.60;;;6.30;;
6693;SDS011;3384;42.628;23.380;2022-08-19T00:35:38;6.00;;;5.60;;
6693;SDS011;3384;42.628;23.380;2022-08-19T00:38:05;5.33;;;5.03;;
6693;SDS011;3384;42.628;23.380;2022-08-19T00:40:32;5.40;;;5.20;;
6693;SDS011;3384;42.628;23.380;2022-08-19T00:42:59;6.17;;;5.77;;
6693;SDS011;3384;42.628;23.380;2022-08-19T00:45:27;6.57;;;6.10;;
6693;SDS011;3384;42.628;23.380;2022-08-19T00:47:57;6.00;;;5.60;;
6693;SDS011;3384;42.628;23.380;2022-08-19T00:50:30;6.07;;;5.30;;
6693;SDS011;3384;42.628;23.380;2022-08-19T00:52:57;5.50;;;5.30;;
6693;SDS011;3384;42.628;23.380;2022-08-19T00:55:26;4.70;;;4.20;;
6693;SDS011;3384;42.628;23.380;2022-08-19T00:57:55;6.00;;;5.53;;
6693;SDS011;3384;42.628;23.380;2022-08-19T01:00:25;5.67;;;5.37;;
6693;SDS011;3384;42.628;23.380;2022-08-19T01:02:53;5.67;;;5.47;;
6693;SDS011;3384;42.628;23.380;2022-08-19T01:05:21;5.27;;;4.90;;
6693;SDS011;3384;42.628;23.380;2022-08-19T01:07:51;5.60;;;5.30;;
6693;SDS011;3384;42.628;23.380;2022-08-19T01:10:20;5.13;;;4.73;;
6693;SDS011;3384;42.628;23.380;2022-08-19T01:12:49;5.83;;;5.63;;
6693;SDS011;3384;42.628;23.380;2022-08-19T01:15:19;7.00;;;6.67;;
6693;SDS011;3384;42.628;23.380;2022-08-19T01:17:50;9.83;;;5.63;;
6693;SDS011;3384;42.628;23.380;2022-08-19T01:20:19;5.43;;;5.20;;
6693;SDS011;3384;42.628;23.380;2022-08-19T01:22:50;5.00;;;4.73;;
6693;SDS011;3384;42.628;23.380;2022-08-19T01:25:20;5.10;;;4.90;;
6693;SDS011;3384;42.628;23.380;2022-08-19T01:27:51;5.70;;;5.40;;
6693;SDS011;3384;42.628;23.380;2022-08-19T01:30:20;5.63;;;5.43;;
6693;SDS011;3384;42.628;23.380;2022-08-19T01:32:49;6.60;;;5.63;;
6693;SDS011;3384;42.628;23.380;2022-08-19T01:35:19;7.53;;;6.27;;
6693;SDS011;3384;42.628;23.380;2022-08-19T01:37:51;6.73;;;6.10;;
6693;SDS011;3384;42.628;23.380;2022-08-19T01:40:20;5.70;;;5.23;;
6693;SDS011;3384;42.628;23.380;2022-08-19T01:42:51;6.70;;;6.00;;
6693;SDS011;3384;42.628;23.380;2022-08-19T01:45:19;6.17;;;5.87;;
6693;SDS011;3384;42.628;23.380;2022-08-19T01:47:47;10.13;;;5.47;;
6693;SDS011;3384;42.628;23.380;2022-08-19T01:50:14;6.13;;;5.93;;
6693;SDS011;3384;42.628;23.380;2022-08-19T01:52:42;6.20;;;6.00;;
6693;SDS011;3384;42.628;23.380;2022-08-19T01:55:13;6.13;;;5.93;;
6693;SDS011;3384;42.628;23.380;2022-08-19T01:57:42;7.00;;;6.50;;
6693;SDS011;3384;42.628;23.380;2022-08-19T02:00:15;6.60;;;6.03;;
6693;SDS011;3384;42.628;23.380;2022-08-19T02:02:44;8.23;;;7.63;;
6693;SDS011;3384;42.628;23.380;2022-08-19T02:05:12;7.13;;;6.67;;
6693;SDS011;3384;42.628;23.380;2022-08-19T02:07:39;7.90;;;6.13;;
6693;SDS011;3384;42.628;23.380;2022-08-19T02:10:08;5.60;;;5.40;;
6693;SDS011;3384;42.628;23.380;2022-08-19T02:12:38;14.13;;;5.77;;
6693;SDS011;3384;42.628;23.380;2022-08-19T02:15:06;5.27;;;5.07;;
6693;SDS011;3384;42.628;23.380;2022-08-19T02:17:33;6.90;;;6.40;;
6693;SDS011;3384;42.628;23.380;2022-08-19T02:20:00;5.27;;;4.97;;
6693;SDS011;3384;42.628;23.380;2022-08-19T02:22:27;7.17;;;6.63;;
6693;SDS011;3384;42.628;23.380;2022-08-19T02:24:54;5.30;;;4.80;;
6693;SDS011;3384;42.628;23.380;2022-08-19T02:27:21;9.53;;;5.87;;
6693;SDS011;3384;42.628;23.380;2022-08-19T02:29:50;6.10;;;5.70;;
6693;SDS011;3384;42.628;23.380;2022-08-19T02:32:18;5.70;;;5.30;;
6693;SDS011;3384;42.628;23.380;2022-08-19T02:34:46;5.57;;;5.27;;
6693;SDS011;3384;42.628;23.380;2022-08-19T02:37:13;5.63;;;5.43;;
6693;SDS011;3384;42.628;23.380;2022-08-19T02:39:54;5.67;;;5.50;;
6693;SDS011;3384;42.628;23.380;2022-08-19T02:42:21;6.40;;;6.10;;
6693;SDS011;3384;42.628;23.380;2022-08-19T02:44:47;5.80;;;5.50;;
6693;SDS011;3384;42.628;23.380;2022-08-19T02:47:17;6.10;;;5.80;;
6693;SDS011;3384;42.628;23.380;2022-08-19T02:49:44;5.90;;;5.60;;
6693;SDS011;3384;42.628;23.380;2022-08-19T02:52:11;6.13;;;5.90;;
6693;SDS011;3384;42.628;23.380;2022-08-19T02:54:39;6.30;;;6.10;;
6693;SDS011;3384;42.628;23.380;2022-08-19T02:57:05;6.23;;;5.83;;
6693;SDS011;3384;42.628;23.380;2022-08-19T02:59:32;6.23;;;5.73;;
6693;SDS011;3384;42.628;23.380;2022-08-19T03:02:01;6.73;;;6.33;;
6693;SDS011;3384;42.628;23.380;2022-08-19T03:04:28;5.77;;;5.57;;
6693;SDS011;3384;42.628;23.380;2022-08-19T03:06:55;6.10;;;5.80;;
6693;SDS011;3384;42.628;23.380;2022-08-19T03:09:22;6.40;;;5.73;;
6693;SDS011;3384;42.628;23.380;2022-08-19T03:11:49;7.13;;;6.83;;
6693;SDS011;3384;42.628;23.380;2022-08-19T03:14:16;6.07;;;5.80;;
6693;SDS011;3384;42.628;23.380;2022-08-19T03:16:44;6.80;;;6.33;;
6693;SDS011;3384;42.628;23.380;2022-08-19T03:19:15;7.90;;;7.20;;
6693;SDS011;3384;42.628;23.380;2022-08-19T03:21:43;11.17;;;10.13;;
6693;SDS011;3384;42.628;23.380;2022-08-19T03:24:11;14.03;;;7.83;;
6693;SDS011;3384;42.628;23.380;2022-08-19T03:26:39;7.67;;;7.27;;
6693;SDS011;3384;42.628;23.380;2022-08-19T03:29:07;6.87;;;6.47;;
6693;SDS011;3384;42.628;23.380;2022-08-19T03:31:35;6.77;;;6.23;;
6693;SDS011;3384;42.628;23.380;2022-08-19T03:34:02;6.10;;;5.90;;
6693;SDS011;3384;42.628;23.380;2022-08-19T03:36:31;6.80;;;6.40;;
6693;SDS011;3384;42.628;23.380;2022-08-19T03:38:58;8.37;;;5.57;;
6693;SDS011;3384;42.628;23.380;2022-08-19T03:41:27;5.97;;;5.67;;
6693;SDS011;3384;42.628;23.380;2022-08-19T03:43:56;6.40;;;5.90;;
6693;SDS011;3384;42.628;23.380;2022-08-19T03:46:24;6.87;;;6.47;;
6693;SDS011;3384;42.628;23.380;2022-08-19T03:48:54;8.80;;;6.53;;
6693;SDS011;3384;42.628;23.380;2022-08-19T03:51:23;10.87;;;6.80;;
6693;SDS011;3384;42.628;23.380;2022-08-19T03:53:54;6.30;;;6.10;;
6693;SDS011;3384;42.628;23.380;2022-08-19T03:56:21;7.53;;;6.43;;
6693;SDS011;3384;42.628;23.380;2022-08-19T03:58:50;6.93;;;6.43;;
6693;SDS011;3384;42.628;23.380;2022-08-19T04:01:18;6.97;;;6.43;;
6693;SDS011;3384;42.628;23.380;2022-08-19T04:03:46;6.57;;;6.33;;
6693;SDS011;3384;42.628;23.380;2022-08-19T04:06:14;13.70;;;6.00;;
6693;SDS011;3384;42.628;23.380;2022-08-19T04:08:43;10.20;;;6.57;;
6693;SDS011;3384;42.628;23.380;2022-08-19T04:11:14;6.10;;;5.80;;
6693;SDS011;3384;42.628;23.380;2022-08-19T04:13:46;5.67;;;5.37;;
6693;SDS011;3384;42.628;23.380;2022-08-19T04:16:14;6.83;;;6.53;;
6693;SDS011;3384;42.628;23.380;2022-08-19T04:18:41;6.07;;;5.77;;
6693;SDS011;3384;42.628;23.380;2022-08-19T04:21:08;6.27;;;5.83;;
6693;SDS011;3384;42.628;23.380;2022-08-19T04:23:41;7.07;;;6.67;;
6693;SDS011;3384;42.628;23.380;2022-08-19T04:26:11;5.80;;;5.60;;
6693;SDS011;3384;42.628;23.380;2022-08-19T04:28:41;7.77;;;7.17;;
6693;SDS011;3384;42.628;23.380;2022-08-19T04:31:12;8.13;;;7.43;;
6693;SDS011;3384;42.628;23.380;2022-08-19T04:33:40;7.30;;;6.83;;
6693;SDS011;3384;42.628;23.380;2022-08-19T04:39:30;7.43;;;7.13;;
6693;SDS011;3384;42.628;23.380;2022-08-19T04:42:16;6.90;;;6.60;;
6693;SDS011;3384;42.628;23.380;2022-08-19T04:48:27;8.00;;;7.40;;
6693;SDS011;3384;42.628;23.380;2022-08-19T04:54:30;8.23;;;6.30;;
6693;SDS011;3384;42.628;23.380;2022-08-19T04:56:57;8.30;;;7.47;;
6693;SDS011;3384;42.628;23.380;2022-08-19T04:59:26;13.03;;;6.67;;
6693;SDS011;3384;42.628;23.380;2022-08-19T05:01:53;8.60;;;6.60;;
6693;SDS011;3384;42.628;23.380;2022-08-19T05:04:20;6.67;;;6.37;;
6693;SDS011;3384;42.628;23.380;2022-08-19T05:06:47;7.40;;;6.70;;
6693;SDS011;3384;42.628;23.380;2022-08-19T05:09:17;7.37;;;6.80;;
6693;SDS011;3384;42.628;23.380;2022-08-19T05:11:45;8.33;;;7.20;;
6693;SDS011;3384;42.628;23.380;2022-08-19T05:14:12;7.07;;;6.50;;
6693;SDS011;3384;42.628;23.380;2022-08-19T05:16:40;8.83;;;7.20;;
6693;SDS011;3384;42.628;23.380;2022-08-19T05:19:07;6.27;;;5.97;;
6693;SDS011;3384;42.628;23.380;2022-08-19T05:21:52;7.83;;;7.33;;
6693;SDS011;3384;42.628;23.380;2022-08-19T05:24:38;7.97;;;7.37;;
6693;SDS011;3384;42.628;23.380;2022-08-19T05:30:28;7.60;;;6.60;;
6693;SDS011;3384;42.628;23.380;2022-08-19T05:32:56;7.27;;;6.80;;
6693;SDS011;3384;42.628;23.380;2022-08-19T05:35:28;6.87;;;6.37;;
6693;SDS011;3384;42.628;23.380;2022-08-19T05:38:00;7.83;;;7.43;;
6693;SDS011;3384;42.628;23.380;2022-08-19T05:40:29;8.57;;;6.60;;
6693;SDS011;3384;42.628;23.380;2022-08-19T05:42:56;8.77;;;7.30;;
6693;SDS011;3384;42.628;23.380;2022-08-19T05:45:23;7.30;;;6.77;;
6693;SDS011;3384;42.628;23.380;2022-08-19T05:47:50;7.60;;;6.93;;
6693;SDS011;3384;42.628;23.380;2022-08-19T05:50:19;11.53;;;6.70;;
6693;SDS011;3384;42.628;23.380;2022-08-19T05:52:46;7.53;;;6.73;;
6693;SDS011;3384;42.628;23.380;2022-08-19T05:55:13;9.10;;;8.23;;
6693;SDS011;3384;42.628;23.380;2022-08-19T05:57:40;8.73;;;8.03;;
6693;SDS011;3384;42.628;23.380;2022-08-19T06:00:07;7.93;;;7.33;;
6693;SDS011;3384;42.628;23.380;2022-08-19T06:02:36;9.03;;;8.40;;
6693;SDS011;3384;42.628;23.380;2022-08-19T06:05:03;7.33;;;6.63;;
6693;SDS011;3384;42.628;23.380;2022-08-19T06:07:35;13.30;;;7.20;;
6693;SDS011;3384;42.628;23.380;2022-08-19T06:10:02;9.37;;;6.83;;
6693;SDS011;3384;42.628;23.380;2022-08-19T06:12:31;7.73;;;7.13;;
6693;SDS011;3384;42.628;23.380;2022-08-19T06:15:00;8.70;;;7.70;;
6693;SDS011;3384;42.628;23.380;2022-08-19T06:17:28;6.63;;;6.33;;
6693;SDS011;3384;42.628;23.380;2022-08-19T06:19:56;13.87;;;6.50;;
6693;SDS011;3384;42.628;23.380;2022-08-19T06:22:24;10.70;;;6.50;;
6693;SDS011;3384;42.628;23.380;2022-08-19T06:24:52;7.47;;;7.10;;
6693;SDS011;3384;42.628;23.380;2022-08-19T06:27:19;8.23;;;7.63;;
6693;SDS011;3384;42.628;23.380;2022-08-19T06:29:47;7.07;;;6.50;;
6693;SDS011;3384;42.628;23.380;2022-08-19T06:32:14;6.50;;;6.30;;
6693;SDS011;3384;42.628;23.380;2022-08-19T06:34:43;7.80;;;7.10;;
6693;SDS011;3384;42.628;23.380;2022-08-19T06:37:10;14.53;;;6.20;;
6693;SDS011;3384;42.628;23.380;2022-08-19T06:39:38;7.27;;;6.90;;
6693;SDS011;3384;42.628;23.380;2022-08-19T06:42:08;6.97;;;6.33;;
6693;SDS011;3384;42.628;23.380;2022-08-19T06:44:38;6.63;;;5.87;;
6693;SDS011;3384;42.628;23.380;2022-08-19T06:47:07;8.17;;;7.50;;
6693;SDS011;3384;42.628;23.380;2022-08-19T06:49:35;7.37;;;6.87;;
6693;SDS011;3384;42.628;23.380;2022-08-19T06:52:03;7.13;;;6.70;;
6693;SDS011;3384;42.628;23.380;2022-08-19T06:54:30;9.10;;;7.97;;
6693;SDS011;3384;42.628;23.380;2022-08-19T06:56:59;11.40;;;8.00;;
6693;SDS011;3384;42.628;23.380;2022-08-19T06:59:30;14.53;;;7.50;;
6693;SDS011;3384;42.628;23.380;2022-08-19T07:01:59;7.97;;;7.30;;
6693;SDS011;3384;42.628;23.380;2022-08-19T07:04:28;10.03;;;9.13;;
6693;SDS011;3384;42.628;23.380;2022-08-19T07:06:58;7.17;;;6.47;;
6693;SDS011;3384;42.628;23.380;2022-08-19T07:09:26;19.47;;;6.70;;
6693;SDS011;3384;42.628;23.380;2022-08-19T07:11:54;11.83;;;6.30;;
6693;SDS011;3384;42.628;23.380;2022-08-19T07:14:22;26.57;;;6.97;;
6693;SDS011;3384;42.628;23.380;2022-08-19T07:16:54;16.97;;;6.50;;
6693;SDS011;3384;42.628;23.380;2022-08-19T07:19:24;9.03;;;6.87;;
6693;SDS011;3384;42.628;23.380;2022-08-19T07:21:53;7.80;;;7.00;;
6693;SDS011;3384;42.628;23.380;2022-08-19T07:24:21;6.60;;;6.00;;
6693;SDS011;3384;42.628;23.380;2022-08-19T07:26:49;16.53;;;7.03;;
6693;SDS011;3384;42.628;23.380;2022-08-19T07:29:18;7.97;;;7.17;;
6693;SDS011;3384;42.628;23.380;2022-08-19T07:31:48;8.83;;;6.40;;
6693;SDS011;3384;42.628;23.380;2022-08-19T07:34:17;24.70;;;6.80;;
6693;SDS011;3384;42.628;23.380;2022-08-19T07:36:45;6.70;;;6.20;;
6693;SDS011;3384;42.628;23.380;2022-08-19T07:39:13;16.87;;;7.43;;
6693;SDS011;3384;42.628;23.380;2022-08-19T07:41:44;9.43;;;7.43;;
6693;SDS011;3384;42.628;23.380;2022-08-19T07:44:12;9.47;;;5.20;;
6693;SDS011;3384;42.628;23.380;2022-08-19T07:46:42;8.13;;;5.97;;
6693;SDS011;3384;42.628;23.380;2022-08-19T07:49:10;11.17;;;6.17;;
6693;SDS011;3384;42.628;23.380;2022-08-19T07:51:44;17.60;;;5.63;;
6693;SDS011;3384;42.628;23.380;2022-08-19T07:54:11;6.77;;;6.10;;
6693;SDS011;3384;42.628;23.380;2022-08-19T07:56:38;13.43;;;5.67;;
6693;SDS011;3384;42.628;23.380;2022-08-19T07:59:05;11.40;;;6.20;;
6693;SDS011;3384;42.628;23.380;2022-08-19T08:01:33;11.60;;;5.50;;
6693;SDS011;3384;42.628;23.380;2022-08-19T08:04:00;7.10;;;6.40;;
6693;SDS011;3384;42.628;23.380;2022-08-19T08:06:46;9.77;;;6.37;;
6693;SDS011;3384;42.628;23.380;2022-08-19T08:09:34;6.70;;;6.20;;
6693;SDS011;3384;42.628;23.380;2022-08-19T08:12:05;11.63;;;5.50;;
6693;SDS011;3384;42.628;23.380;2022-08-19T08:14:36;9.37;;;6.03;;
6693;SDS011;3384;42.628;23.380;2022-08-19T08:17:21;10.57;;;6.00;;
6693;SDS011;3384;42.628;23.380;2022-08-19T08:19:49;7.03;;;5.97;;
6693;SDS011;3384;42.628;23.380;2022-08-19T08:22:23;7.63;;;7.00;;
6693;SDS011;3384;42.628;23.380;2022-08-19T08:25:08;6.43;;;5.83;;
6693;SDS011;3384;42.628;23.380;2022-08-19T08:27:37;16.03;;;5.83;;
6693;SDS011;3384;42.628;23.380;2022-08-19T08:30:06;8.27;;;6.80;;
6693;SDS011;3384;42.628;23.380;2022-08-19T08:32:35;13.57;;;5.47;;
6693;SDS011;3384;42.628;23.380;2022-08-19T08:35:04;6.33;;;5.87;;
6693;SDS011;3384;42.628;23.380;2022-08-19T08:37:33;8.10;;;7.40;;
6693;SDS011;3384;42.628;23.380;2022-08-19T08:40:02;6.47;;;6.10;;
6693;SDS011;3384;42.628;23.380;2022-08-19T08:42:32;7.40;;;5.43;;
6693;SDS011;3384;42.628;23.380;2022-08-19T08:45:03;5.77;;;4.93;;
6693;SDS011;3384;42.628;23.380;2022-08-19T08:47:36;8.63;;;4.93;;
6693;SDS011;3384;42.628;23.380;2022-08-19T08:50:09;7.13;;;4.87;;
6693;SDS011;3384;42.628;23.380;2022-08-19T08:52:44;6.10;;;5.30;;
6693;SDS011;3384;42.628;23.380;2022-08-19T08:55:16;5.97;;;5.47;;
6693;SDS011;3384;42.628;23.380;2022-08-19T08:57:50;5.90;;;5.57;;
6693;SDS011;3384;42.628;23.380;2022-08-19T09:00:22;5.60;;;5.20;;
6693;SDS011;3384;42.628;23.380;2022-08-19T09:02:52;5.33;;;5.03;;
6693;SDS011;3384;42.628;23.380;2022-08-19T09:05:20;4.50;;;4.30;;
6693;SDS011;3384;42.628;23.380;2022-08-19T09:07:52;4.47;;;4.27;;
6693;SDS011;3384;42.628;23.380;2022-08-19T09:10:29;7.10;;;5.23;;
6693;SDS011;3384;42.628;23.380;2022-08-19T09:13:03;4.87;;;4.67;;
6693;SDS011;3384;42.628;23.380;2022-08-19T09:15:38;5.97;;;4.57;;
6693;SDS011;3384;42.628;23.380;2022-08-19T09:18:10;6.97;;;4.53;;
6693;SDS011;3384;42.628;23.380;2022-08-19T09:20:37;5.57;;;4.50;;
6693;SDS011;3384;42.628;23.380;2022-08-19T09:23:06;4.17;;;3.97;;
6693;SDS011;3384;42.628;23.380;2022-08-19T09:25:33;6.27;;;4.00;;
6693;SDS011;3384;42.628;23.380;2022-08-19T09:28:00;5.80;;;3.40;;
6693;SDS011;3384;42.628;23.380;2022-08-19T09:30:29;5.80;;;4.40;;
6693;SDS011;3384;42.628;23.380;2022-08-19T09:32:59;9.10;;;3.70;;
6693;SDS011;3384;42.628;23.380;2022-08-19T09:35:28;4.77;;;4.10;;
6693;SDS011;3384;42.628;23.380;2022-08-19T09:37:56;4.53;;;4.23;;
6693;SDS011;3384;42.628;23.380;2022-08-19T09:40:29;4.30;;;4.00;;
6693;SDS011;3384;42.628;23.380;2022-08-19T09:42:56;5.23;;;4.63;;
6693;SDS011;3384;42.628;23.380;2022-08-19T09:45:27;5.50;;;5.00;;
6693;SDS011;3384;42.628;23.380;2022-08-19T09:47:55;4.60;;;4.50;;
6693;SDS011;3384;42.628;23.380;2022-08-19T09:50:23;6.70;;;4.27;;
6693;SDS011;3384;42.628;23.380;2022-08-19T09:52:50;8.47;;;4.00;;
6693;SDS011;3384;42.628;23.380;2022-08-19T09:55:22;7.03;;;4.27;;
6693;SDS011;3384;42.628;23.380;2022-08-19T09:57:50;5.60;;;4.17;;
6693;SDS011;3384;42.628;23.380;2022-08-19T10:00:20;4.63;;;4.37;;
6693;SDS011;3384;42.628;23.380;2022-08-19T10:02:47;4.73;;;4.07;;
6693;SDS011;3384;42.628;23.380;2022-08-19T10:05:17;4.77;;;4.47;;
6693;SDS011;3384;42.628;23.380;2022-08-19T10:08:02;22.53;;;4.43;;
6693;SDS011;3384;42.628;23.380;2022-08-19T10:10:29;4.20;;;3.90;;
6693;SDS011;3384;42.628;23.380;2022-08-19T10:12:57;3.20;;;3.10;;
6693;SDS011;3384;42.628;23.380;2022-08-19T10:15:24;7.17;;;4.20;;
6693;SDS011;3384;42.628;23.380;2022-08-19T10:17:51;5.70;;;4.40;;
6693;SDS011;3384;42.628;23.380;2022-08-19T10:20:18;5.43;;;4.73;;
6693;SDS011;3384;42.628;23.380;2022-08-19T10:22:45;7.93;;;6.37;;
6693;SDS011;3384;42.628;23.380;2022-08-19T10:25:12;6.53;;;4.70;;
6693;SDS011;3384;42.628;23.380;2022-08-19T10:27:41;3.97;;;3.67;;
6693;SDS011;3384;42.628;23.380;2022-08-19T10:30:13;3.83;;;3.60;;
6693;SDS011;3384;42.628;23.380;2022-08-19T10:32:39;4.43;;;4.03;;
6693;SDS011;3384;42.628;23.380;2022-08-19T10:35:07;4.30;;;4.00;;
6693;SDS011;3384;42.628;23.380;2022-08-19T10:37:34;4.50;;;4.10;;
6693;SDS011;3384;42.628;23.380;2022-08-19T10:40:02;3.47;;;3.37;;
6693;SDS011;3384;42.628;23.380;2022-08-19T10:42:31;4.07;;;3.87;;
6693;SDS011;3384;42.628;23.380;2022-08-19T10:44:58;4.40;;;4.10;;
6693;SDS011;3384;42.628;23.380;2022-08-19T10:47:26;4.63;;;4.37;;
6693;SDS011;3384;42.628;23.380;2022-08-19T10:49:53;5.13;;;4.30;;
6693;SDS011;3384;42.628;23.380;2022-08-19T10:52:38;10.40;;;4.30;;
6693;SDS011;3384;42.628;23.380;2022-08-19T10:55:06;5.00;;;3.90;;
6693;SDS011;3384;42.628;23.380;2022-08-19T10:57:51;4.47;;;4.13;;
6693;SDS011;3384;42.628;23.380;2022-08-19T11:00:18;4.10;;;3.90;;
6693;SDS011;3384;42.628;23.380;2022-08-19T11:03:00;4.30;;;4.10;;
6693;SDS011;3384;42.628;23.380;2022-08-19T11:05:27;4.20;;;3.90;;
6693;SDS011;3384;42.628;23.380;2022-08-19T11:07:54;5.07;;;4.57;;
6693;SDS011;3384;42.628;23.380;2022-08-19T11:10:21;5.70;;;4.03;;
6693;SDS011;3384;42.628;23.380;2022-08-19T11:12:53;4.53;;;4.20;;
6693;SDS011;3384;42.628;23.380;2022-08-19T11:15:20;3.73;;;3.63;;
6693;SDS011;3384;42.628;23.380;2022-08-19T11:17:48;5.50;;;4.40;;
6693;SDS011;3384;42.628;23.380;2022-08-19T11:20:20;4.70;;;4.50;;
6693;SDS011;3384;42.628;23.380;2022-08-19T11:22:48;3.93;;;3.83;;
6693;SDS011;3384;42.628;23.380;2022-08-19T11:25:18;6.70;;;3.80;;
6693;SDS011;3384;42.628;23.380;2022-08-19T11:27:45;4.03;;;3.83;;
6693;SDS011;3384;42.628;23.380;2022-08-19T11:30:16;5.07;;;4.67;;
6693;SDS011;3384;42.628;23.380;2022-08-19T11:32:43;4.87;;;4.57;;
6693;SDS011;3384;42.628;23.380;2022-08-19T11:35:11;3.90;;;3.73;;
6693;SDS011;3384;42.628;23.380;2022-08-19T11:37:40;4.30;;;4.10;;
6693;SDS011;3384;42.628;23.380;2022-08-19T11:40:07;4.13;;;3.93;;
6693;SDS011;3384;42.628;23.380;2022-08-19T11:42:35;4.30;;;4.10;;
6693;SDS011;3384;42.628;23.380;2022-08-19T11:45:21;4.57;;;4.27;;
6693;SDS011;3384;42.628;23.380;2022-08-19T11:47:48;5.27;;;4.23;;
6693;SDS011;3384;42.628;23.380;2022-08-19T11:50:15;4.60;;;4.40;;
6693;SDS011;3384;42.628;23.380;2022-08-19T11:52:44;4.40;;;4.00;;
6693;SDS011;3384;42.628;23.380;2022-08-19T11:55:12;4.80;;;3.90;;
6693;SDS011;3384;42.628;23.380;2022-08-19T11:57:40;4.10;;;4.00;;
6693;SDS011;3384;42.628;23.380;2022-08-19T12:00:09;6.80;;;4.87;;
6693;SDS011;3384;42.628;23.380;2022-08-19T12:02:37;5.20;;;4.87;;
6693;SDS011;3384;42.628;23.380;2022-08-19T12:05:05;11.10;;;5.83;;
6693;SDS011;3384;42.628;23.380;2022-08-19T12:07:32;7.10;;;4.10;;
6693;SDS011;3384;42.628;23.380;2022-08-19T12:10:01;4.90;;;4.70;;
6693;SDS011;3384;42.628;23.380;2022-08-19T12:12:28;11.53;;;4.40;;
6693;SDS011;3384;42.628;23.380;2022-08-19T12:14:55;4.37;;;4.17;;
6693;SDS011;3384;42.628;23.380;2022-08-19T12:17:23;5.20;;;4.70;;
6693;SDS011;3384;42.628;23.380;2022-08-19T12:19:51;10.50;;;4.63;;
6693;SDS011;3384;42.628;23.380;2022-08-19T12:22:18;4.73;;;4.33;;
6693;SDS011;3384;42.628;23.380;2022-08-19T12:24:46;4.63;;;4.30;;
6693;SDS011;3384;42.628;23.380;2022-08-19T12:27:17;5.53;;;5.13;;
6693;SDS011;3384;42.628;23.380;2022-08-19T12:29:44;5.00;;;4.33;;
6693;SDS011;3384;42.628;23.380;2022-08-19T12:32:11;7.83;;;5.27;;
6693;SDS011;3384;42.628;23.380;2022-08-19T12:34:38;4.77;;;4.47;;
6693;SDS011;3384;42.628;23.380;2022-08-19T12:37:05;5.30;;;4.57;;
6693;SDS011;3384;42.628;23.380;2022-08-19T12:39:36;4.03;;;3.73;;
6693;SDS011;3384;42.628;23.380;2022-08-19T12:42:06;4.50;;;4.10;;
6693;SDS011;3384;42.628;23.380;2022-08-19T12:44:40;4.77;;;4.37;;
6693;SDS011;3384;42.628;23.380;2022-08-19T12:47:33;4.60;;;4.30;;
6693;SDS011;3384;42.628;23.380;2022-08-19T12:50:27;4.90;;;4.60;;
6693;SDS011;3384;42.628;23.380;2022-08-19T12:53:09;4.23;;;3.93;;
6693;SDS011;3384;42.628;23.380;2022-08-19T12:55:36;5.27;;;4.87;;
6693;SDS011;3384;42.628;23.380;2022-08-19T12:58:03;4.97;;;4.43;;
6693;SDS011;3384;42.628;23.380;2022-08-19T13:00:31;5.03;;;4.63;;
6693;SDS011;3384;42.628;23.380;2022-08-19T13:02:59;4.80;;;4.30;;
6693;SDS011;3384;42.628;23.380;2022-08-19T13:05:27;4.63;;;4.43;;
6693;SDS011;3384;42.628;23.380;2022-08-19T13:07:56;5.00;;;4.80;;
6693;SDS011;3384;42.628;23.380;2022-08-19T13:10:28;4.40;;;4.20;;
6693;SDS011;3384;42.628;23.380;2022-08-19T13:12:57;5.17;;;4.70;;
6693;SDS011;3384;42.628;23.380;2022-08-19T13:15:25;4.70;;;4.50;;
6693;SDS011;3384;42.628;23.380;2022-08-19T13:17:55;5.53;;;5.07;;
6693;SDS011;3384;42.628;23.380;2022-08-19T13:20:21;6.37;;;4.63;;
6693;SDS011;3384;42.628;23.380;2022-08-19T13:22:48;6.07;;;4.50;;
6693;SDS011;3384;42.628;23.380;2022-08-19T13:25:17;6.80;;;4.17;;
6693;SDS011;3384;42.628;23.380;2022-08-19T13:27:45;4.37;;;3.90;;
6693;SDS011;3384;42.628;23.380;2022-08-19T13:30:12;4.13;;;4.03;;
6693;SDS011;3384;42.628;23.380;2022-08-19T13:33:00;5.30;;;4.63;;
6693;SDS011;3384;42.628;23.380;2022-08-19T13:35:41;4.60;;;4.25;;
6693;SDS011;3384;42.628;23.380;2022-08-19T13:38:09;12.23;;;4.80;;
6693;SDS011;3384;42.628;23.380;2022-08-19T13:40:38;4.90;;;4.50;;
6693;SDS011;3384;42.628;23.380;2022-08-19T13:43:05;8.17;;;5.10;;
6693;SDS011;3384;42.628;23.380;2022-08-19T13:45:33;4.67;;;4.57;;
6693;SDS011;3384;42.628;23.380;2022-08-19T13:48:03;10.10;;;5.27;;
6693;SDS011;3384;42.628;23.380;2022-08-19T13:50:32;4.93;;;4.70;;
6693;SDS011;3384;42.628;23.380;2022-08-19T13:52:59;8.20;;;7.60;;
6693;SDS011;3384;42.628;23.380;2022-08-19T13:55:28;7.63;;;6.90;;
6693;SDS011;3384;42.628;23.380;2022-08-19T13:57:55;5.87;;;4.93;;
6693;SDS011;3384;42.628;23.380;2022-08-19T14:00:25;8.07;;;6.90;;
6693;SDS011;3384;42.628;23.380;2022-08-19T14:02:55;8.13;;;5.60;;
6693;SDS011;3384;42.628;23.380;2022-08-19T14:05:26;5.63;;;5.30;;
6693;SDS011;3384;42.628;23.380;2022-08-19T14:07:54;7.20;;;5.83;;
6693;SDS011;3384;42.628;23.380;2022-08-19T14:10:22;15.30;;;7.90;;
6693;SDS011;3384;42.628;23.380;2022-08-19T14:12:52;10.27;;;4.80;;
6693;SDS011;3384;42.628;23.380;2022-08-19T14:15:20;6.20;;;4.70;;
6693;SDS011;3384;42.628;23.380;2022-08-19T14:17:48;5.23;;;4.53;;
6693;SDS011;3384;42.628;23.380;2022-08-19T14:20:16;7.63;;;4.77;;
6693;SDS011;3384;42.628;23.380;2022-08-19T14:22:45;7.50;;;5.67;;
6693;SDS011;3384;42.628;23.380;2022-08-19T14:25:14;5.30;;;4.80;;
6693;SDS011;3384;42.628;23.380;2022-08-19T14:27:43;6.03;;;5.60;;
6693;SDS011;3384;42.628;23.380;2022-08-19T14:30:11;5.53;;;5.10;;
6693;SDS011;3384;42.628;23.380;2022-08-19T14:32:42;7.40;;;4.43;;
6693;SDS011;3384;42.628;23.380;2022-08-19T14:35:09;5.20;;;4.87;;
6693;SDS011;3384;42.628;23.380;2022-08-19T14:37:37;10.27;;;7.00;;
6693;SDS011;3384;42.628;23.380;2022-08-19T14:40:07;12.37;;;4.80;;
6693;SDS011;3384;42.628;23.380;2022-08-19T14:42:35;6.20;;;4.60;;
6693;SDS011;3384;42.628;23.380;2022-08-19T14:45:02;16.23;;;5.13;;
6693;SDS011;3384;42.628;23.380;2022-08-19T14:47:31;7.13;;;5.87;;
6693;SDS011;3384;42.628;23.380;2022-08-19T14:49:58;5.57;;;5.17;;
6693;SDS011;3384;42.628;23.380;2022-08-19T14:52:25;5.30;;;5.10;;
6693;SDS011;3384;42.628;23.380;2022-08-19T14:54:52;6.20;;;4.67;;
6693;SDS011;3384;42.628;23.380;2022-08-19T14:57:21;9.67;;;5.33;;
6693;SDS011;3384;42.628;23.380;2022-08-19T14:59:48;5.70;;;5.20;;
6693;SDS011;3384;42.628;23.380;2022-08-19T15:02:15;8.43;;;5.27;;
6693;SDS011;3384;42.628;23.380;2022-08-19T15:04:42;8.03;;;5.00;;
6693;SDS011;3384;42.628;23.380;2022-08-19T15:07:09;9.33;;;6.23;;
6693;SDS011;3384;42.628;23.380;2022-08-19T15:09:36;10.50;;;4.90;;
6693;SDS011;3384;42.628;23.380;2022-08-19T15:12:04;5.10;;;4.90;;
6693;SDS011;3384;42.628;23.380;2022-08-19T15:14:35;6.20;;;5.70;;
6693;SDS011;3384;42.628;23.380;2022-08-19T15:17:03;7.40;;;4.90;;
6693;SDS011;3384;42.628;23.380;2022-08-19T15:19:30;8.50;;;5.43;;
6693;SDS011;3384;42.628;23.380;2022-08-19T15:22:02;6.20;;;4.70;;
6693;SDS011;3384;42.628;23.380;2022-08-19T15:24:29;8.10;;;5.10;;
6693;SDS011;3384;42.628;23.380;2022-08-19T15:26:57;5.60;;;5.17;;